Chesterville, Texas
Current Conditions -  °F | °C
As of 2:15 AM on Monday 24 Nov 2014 (Local Time) from KELA Reporting Station
Clear Clear  
Wind Chill: 56°   Ceiling: Unl
Heat Index: 56°   Visibility: 10mi
Dew Point: 44°   Wind: 10mph
Humidity: 63%   Direction: 350°N
Pressure: 29.85"   Gusts: 17mph
Location:  29.4737°N, 96.1754°W
Report Text: KELA 240815Z AUTO 35009G15KT 10SM CLR 13/06 A2985 RMK AO2 T01320064
Loading
Personal Weather Stations






























Interactive Weather Map New forecast layout! Learn more

10-Day Weather Forecast

Advertisements
Track Severe Weather on mobile